sensor_id;sensor_type;location;lat;lon;timestamp;P1;durP1;ratioP1;P2;durP2;ratioP2
10013;SDS011;45684;48.358;10.746;2022-10-16T00:01:42;2.90;;;2.00;;
10013;SDS011;45684;48.358;10.746;2022-10-16T00:04:10;1.90;;;1.67;;
10013;SDS011;45684;48.358;10.746;2022-10-16T00:06:38;3.37;;;1.90;;
10013;SDS011;45684;48.358;10.746;2022-10-16T00:09:06;4.03;;;2.10;;
10013;SDS011;45684;48.358;10.746;2022-10-16T00:11:37;3.43;;;2.23;;
10013;SDS011;45684;48.358;10.746;2022-10-16T00:14:08;5.30;;;1.80;;
10013;SDS011;45684;48.358;10.746;2022-10-16T00:16:37;3.43;;;1.83;;
10013;SDS011;45684;48.358;10.746;2022-10-16T00:19:05;2.20;;;2.00;;
10013;SDS011;45684;48.358;10.746;2022-10-16T00:21:34;3.07;;;2.30;;
10013;SDS011;45684;48.358;10.746;2022-10-16T00:24:02;2.27;;;1.60;;
10013;SDS011;45684;48.358;10.746;2022-10-16T00:26:32;3.97;;;2.60;;
10013;SDS011;45684;48.358;10.746;2022-10-16T00:29:02;2.90;;;1.47;;
10013;SDS011;45684;48.358;10.746;2022-10-16T00:31:31;1.90;;;1.80;;
10013;SDS011;45684;48.358;10.746;2022-10-16T00:33:58;2.57;;;2.00;;
10013;SDS011;45684;48.358;10.746;2022-10-16T00:36:26;2.10;;;1.87;;
10013;SDS011;45684;48.358;10.746;2022-10-16T00:38:55;1.90;;;1.80;;
10013;SDS011;45684;48.358;10.746;2022-10-16T00:41:30;3.83;;;1.70;;
10013;SDS011;45684;48.358;10.746;2022-10-16T00:44:00;3.40;;;1.90;;
10013;SDS011;45684;48.358;10.746;2022-10-16T00:46:31;4.20;;;1.80;;
10013;SDS011;45684;48.358;10.746;2022-10-16T00:49:05;3.07;;;1.50;;
10013;SDS011;45684;48.358;10.746;2022-10-16T00:51:37;3.60;;;1.80;;
10013;SDS011;45684;48.358;10.746;2022-10-16T00:54:08;2.07;;;1.60;;
10013;SDS011;45684;48.358;10.746;2022-10-16T00:56:37;2.30;;;1.60;;
10013;SDS011;45684;48.358;10.746;2022-10-16T00:59:07;1.47;;;1.40;;
10013;SDS011;45684;48.358;10.746;2022-10-16T01:01:43;1.80;;;1.50;;
10013;SDS011;45684;48.358;10.746;2022-10-16T01:04:11;2.10;;;1.40;;
10013;SDS011;45684;48.358;10.746;2022-10-16T01:06:40;1.50;;;1.40;;
10013;SDS011;45684;48.358;10.746;2022-10-16T01:09:15;3.03;;;1.67;;
10013;SDS011;45684;48.358;10.746;2022-10-16T01:11:51;2.67;;;1.50;;
10013;SDS011;45684;48.358;10.746;2022-10-16T01:14:28;2.33;;;1.47;;
10013;SDS011;45684;48.358;10.746;2022-10-16T01:17:06;1.63;;;1.43;;
10013;SDS011;45684;48.358;10.746;2022-10-16T01:19:48;2.53;;;1.50;;
10013;SDS011;45684;48.358;10.746;2022-10-16T01:22:30;1.50;;;1.40;;
10013;SDS011;45684;48.358;10.746;2022-10-16T01:25:09;1.40;;;1.40;;
10013;SDS011;45684;48.358;10.746;2022-10-16T01:27:45;3.63;;;1.57;;
10013;SDS011;45684;48.358;10.746;2022-10-16T01:30:16;3.07;;;1.70;;
10013;SDS011;45684;48.358;10.746;2022-10-16T01:32:49;2.07;;;1.40;;
10013;SDS011;45684;48.358;10.746;2022-10-16T01:35:21;2.13;;;1.70;;
10013;SDS011;45684;48.358;10.746;2022-10-16T01:37:53;1.60;;;1.47;;
10013;SDS011;45684;48.358;10.746;2022-10-16T01:40:26;1.70;;;1.60;;
10013;SDS011;45684;48.358;10.746;2022-10-16T01:42:58;1.77;;;1.47;;
10013;SDS011;45684;48.358;10.746;2022-10-16T01:45:30;1.43;;;1.17;;
10013;SDS011;45684;48.358;10.746;2022-10-16T01:47:59;4.10;;;1.57;;
10013;SDS011;45684;48.358;10.746;2022-10-16T01:50:30;4.80;;;1.73;;
10013;SDS011;45684;48.358;10.746;2022-10-16T01:53:00;1.77;;;1.40;;
10013;SDS011;45684;48.358;10.746;2022-10-16T01:55:31;2.13;;;1.87;;
10013;SDS011;45684;48.358;10.746;2022-10-16T01:58:05;3.60;;;1.40;;
10013;SDS011;45684;48.358;10.746;2022-10-16T02:00:36;2.63;;;1.50;;
10013;SDS011;45684;48.358;10.746;2022-10-16T02:03:05;3.57;;;1.60;;
10013;SDS011;45684;48.358;10.746;2022-10-16T02:05:37;2.33;;;1.40;;
10013;SDS011;45684;48.358;10.746;2022-10-16T02:08:08;2.77;;;1.43;;
10013;SDS011;45684;48.358;10.746;2022-10-16T02:10:36;2.33;;;1.40;;
10013;SDS011;45684;48.358;10.746;2022-10-16T02:13:07;2.77;;;1.40;;
10013;SDS011;45684;48.358;10.746;2022-10-16T02:15:41;1.97;;;1.43;;
10013;SDS011;45684;48.358;10.746;2022-10-16T02:18:09;3.07;;;1.50;;
10013;SDS011;45684;48.358;10.746;2022-10-16T02:20:40;2.30;;;1.40;;
10013;SDS011;45684;48.358;10.746;2022-10-16T02:23:15;1.37;;;1.30;;
10013;SDS011;45684;48.358;10.746;2022-10-16T02:25:46;2.83;;;1.60;;
10013;SDS011;45684;48.358;10.746;2022-10-16T02:28:19;3.53;;;1.30;;
10013;SDS011;45684;48.358;10.746;2022-10-16T02:30:52;1.93;;;1.50;;
10013;SDS011;45684;48.358;10.746;2022-10-16T02:33:24;5.43;;;1.47;;
10013;SDS011;45684;48.358;10.746;2022-10-16T02:35:54;2.27;;;1.53;;
10013;SDS011;45684;48.358;10.746;2022-10-16T02:38:23;3.03;;;1.20;;
10013;SDS011;45684;48.358;10.746;2022-10-16T02:40:52;1.40;;;1.30;;
10013;SDS011;45684;48.358;10.746;2022-10-16T02:43:21;3.77;;;1.60;;
10013;SDS011;45684;48.358;10.746;2022-10-16T02:45:49;3.23;;;1.30;;
10013;SDS011;45684;48.358;10.746;2022-10-16T02:48:18;2.83;;;1.60;;
10013;SDS011;45684;48.358;10.746;2022-10-16T02:50:45;1.30;;;1.30;;
10013;SDS011;45684;48.358;10.746;2022-10-16T02:53:13;2.23;;;1.27;;
10013;SDS011;45684;48.358;10.746;2022-10-16T02:55:41;1.60;;;1.50;;
10013;SDS011;45684;48.358;10.746;2022-10-16T02:58:08;2.00;;;1.20;;
10013;SDS011;45684;48.358;10.746;2022-10-16T03:00:38;1.70;;;1.40;;
10013;SDS011;45684;48.358;10.746;2022-10-16T03:03:06;1.77;;;1.33;;
10013;SDS011;45684;48.358;10.746;2022-10-16T03:05:33;2.97;;;1.77;;
10013;SDS011;45684;48.358;10.746;2022-10-16T03:08:01;1.87;;;1.33;;
10013;SDS011;45684;48.358;10.746;2022-10-16T03:10:29;3.17;;;2.10;;
10013;SDS011;45684;48.358;10.746;2022-10-16T03:12:56;2.27;;;1.50;;
10013;SDS011;45684;48.358;10.746;2022-10-16T03:15:24;2.33;;;1.90;;
10013;SDS011;45684;48.358;10.746;2022-10-16T03:17:53;1.60;;;1.50;;
10013;SDS011;45684;48.358;10.746;2022-10-16T03:20:21;4.50;;;1.37;;
10013;SDS011;45684;48.358;10.746;2022-10-16T03:22:49;2.97;;;1.23;;
10013;SDS011;45684;48.358;10.746;2022-10-16T03:25:16;1.90;;;1.20;;
10013;SDS011;45684;48.358;10.746;2022-10-16T03:27:44;1.80;;;1.40;;
10013;SDS011;45684;48.358;10.746;2022-10-16T03:30:12;1.53;;;1.43;;
10013;SDS011;45684;48.358;10.746;2022-10-16T03:32:40;3.43;;;3.13;;
10013;SDS011;45684;48.358;10.746;2022-10-16T03:35:09;5.10;;;4.33;;
10013;SDS011;45684;48.358;10.746;2022-10-16T03:37:37;4.03;;;3.73;;
10013;SDS011;45684;48.358;10.746;2022-10-16T03:40:05;3.03;;;2.80;;
10013;SDS011;45684;48.358;10.746;2022-10-16T03:42:33;2.33;;;2.13;;
10013;SDS011;45684;48.358;10.746;2022-10-16T03:45:01;1.90;;;1.80;;
10013;SDS011;45684;48.358;10.746;2022-10-16T03:47:29;2.10;;;1.90;;
10013;SDS011;45684;48.358;10.746;2022-10-16T03:49:56;3.10;;;1.73;;
10013;SDS011;45684;48.358;10.746;2022-10-16T03:52:26;3.83;;;1.70;;
10013;SDS011;45684;48.358;10.746;2022-10-16T03:54:53;2.13;;;1.90;;
10013;SDS011;45684;48.358;10.746;2022-10-16T03:57:21;1.70;;;1.60;;
10013;SDS011;45684;48.358;10.746;2022-10-16T03:59:50;2.73;;;1.67;;
10013;SDS011;45684;48.358;10.746;2022-10-16T04:02:18;1.67;;;1.57;;
10013;SDS011;45684;48.358;10.746;2022-10-16T04:04:45;2.50;;;2.30;;
10013;SDS011;45684;48.358;10.746;2022-10-16T04:07:13;2.47;;;2.30;;
10013;SDS011;45684;48.358;10.746;2022-10-16T04:09:42;4.80;;;2.00;;
10013;SDS011;45684;48.358;10.746;2022-10-16T04:12:10;1.70;;;1.60;;
10013;SDS011;45684;48.358;10.746;2022-10-16T04:14:38;1.97;;;1.87;;
10013;SDS011;45684;48.358;10.746;2022-10-16T04:17:06;3.23;;;2.23;;
10013;SDS011;45684;48.358;10.746;2022-10-16T04:19:33;3.40;;;3.10;;
10013;SDS011;45684;48.358;10.746;2022-10-16T04:22:01;6.17;;;5.57;;
10013;SDS011;45684;48.358;10.746;2022-10-16T04:24:29;5.50;;;5.10;;
10013;SDS011;45684;48.358;10.746;2022-10-16T04:26:58;4.40;;;4.00;;
10013;SDS011;45684;48.358;10.746;2022-10-16T04:29:26;2.83;;;2.20;;
10013;SDS011;45684;48.358;10.746;2022-10-16T04:31:53;2.33;;;2.07;;
10013;SDS011;45684;48.358;10.746;2022-10-16T04:34:21;2.67;;;1.73;;
10013;SDS011;45684;48.358;10.746;2022-10-16T04:36:49;1.97;;;1.70;;
10013;SDS011;45684;48.358;10.746;2022-10-16T04:39:17;1.80;;;1.70;;
10013;SDS011;45684;48.358;10.746;2022-10-16T04:41:45;1.70;;;1.60;;
10013;SDS011;45684;48.358;10.746;2022-10-16T04:44:14;2.03;;;1.60;;
10013;SDS011;45684;48.358;10.746;2022-10-16T04:46:42;2.13;;;1.70;;
10013;SDS011;45684;48.358;10.746;2022-10-16T04:49:10;2.50;;;2.30;;
10013;SDS011;45684;48.358;10.746;2022-10-16T04:51:38;2.17;;;2.07;;
10013;SDS011;45684;48.358;10.746;2022-10-16T04:54:05;2.40;;;2.20;;
10013;SDS011;45684;48.358;10.746;2022-10-16T04:56:33;2.90;;;2.70;;
10013;SDS011;45684;48.358;10.746;2022-10-16T04:59:06;4.53;;;4.13;;
10013;SDS011;45684;48.358;10.746;2022-10-16T05:01:35;4.23;;;3.90;;
10013;SDS011;45684;48.358;10.746;2022-10-16T05:04:03;3.90;;;3.60;;
10013;SDS011;45684;48.358;10.746;2022-10-16T05:06:30;5.17;;;3.83;;
10013;SDS011;45684;48.358;10.746;2022-10-16T05:08:58;3.90;;;2.80;;
10013;SDS011;45684;48.358;10.746;2022-10-16T05:11:26;1.80;;;1.70;;
10013;SDS011;45684;48.358;10.746;2022-10-16T05:13:54;1.80;;;1.50;;
10013;SDS011;45684;48.358;10.746;2022-10-16T05:16:22;3.53;;;1.53;;
10013;SDS011;45684;48.358;10.746;2022-10-16T05:18:52;1.40;;;1.30;;
10013;SDS011;45684;48.358;10.746;2022-10-16T05:21:35;2.10;;;1.40;;
10013;SDS011;45684;48.358;10.746;2022-10-16T05:24:03;4.13;;;1.80;;
10013;SDS011;45684;48.358;10.746;2022-10-16T05:26:31;2.20;;;2.00;;
10013;SDS011;45684;48.358;10.746;2022-10-16T05:28:58;3.37;;;2.10;;
10013;SDS011;45684;48.358;10.746;2022-10-16T05:31:27;2.80;;;1.90;;
10013;SDS011;45684;48.358;10.746;2022-10-16T05:33:58;2.03;;;1.60;;
10013;SDS011;45684;48.358;10.746;2022-10-16T05:36:27;1.60;;;1.50;;
10013;SDS011;45684;48.358;10.746;2022-10-16T05:38:54;4.27;;;1.50;;
10013;SDS011;45684;48.358;10.746;2022-10-16T05:41:22;2.70;;;1.50;;
10013;SDS011;45684;48.358;10.746;2022-10-16T05:43:51;1.70;;;1.40;;
10013;SDS011;45684;48.358;10.746;2022-10-16T05:46:19;1.40;;;1.30;;
10013;SDS011;45684;48.358;10.746;2022-10-16T05:48:47;1.43;;;1.33;;
10013;SDS011;45684;48.358;10.746;2022-10-16T05:51:17;3.73;;;1.40;;
10013;SDS011;45684;48.358;10.746;2022-10-16T05:53:44;1.20;;;1.10;;
10013;SDS011;45684;48.358;10.746;2022-10-16T05:56:12;2.33;;;1.70;;
10013;SDS011;45684;48.358;10.746;2022-10-16T05:58:40;2.57;;;1.63;;
10013;SDS011;45684;48.358;10.746;2022-10-16T06:01:11;4.40;;;2.13;;
10013;SDS011;45684;48.358;10.746;2022-10-16T06:03:41;3.87;;;2.00;;
10013;SDS011;45684;48.358;10.746;2022-10-16T06:06:11;3.57;;;2.23;;
10013;SDS011;45684;48.358;10.746;2022-10-16T06:08:42;2.67;;;2.47;;
10013;SDS011;45684;48.358;10.746;2022-10-16T06:11:11;3.00;;;2.10;;
10013;SDS011;45684;48.358;10.746;2022-10-16T06:13:40;3.03;;;1.80;;
10013;SDS011;45684;48.358;10.746;2022-10-16T06:16:09;2.60;;;2.40;;
10013;SDS011;45684;48.358;10.746;2022-10-16T06:18:37;3.07;;;2.87;;
10013;SDS011;45684;48.358;10.746;2022-10-16T06:21:09;3.33;;;3.10;;
10013;SDS011;45684;48.358;10.746;2022-10-16T06:23:38;3.10;;;2.80;;
10013;SDS011;45684;48.358;10.746;2022-10-16T06:26:08;3.17;;;2.50;;
10013;SDS011;45684;48.358;10.746;2022-10-16T06:28:37;2.20;;;2.10;;
10013;SDS011;45684;48.358;10.746;2022-10-16T06:31:07;2.90;;;2.10;;
10013;SDS011;45684;48.358;10.746;2022-10-16T06:33:36;2.47;;;2.13;;
10013;SDS011;45684;48.358;10.746;2022-10-16T06:36:06;2.30;;;2.10;;
10013;SDS011;45684;48.358;10.746;2022-10-16T06:38:35;3.43;;;2.00;;
10013;SDS011;45684;48.358;10.746;2022-10-16T06:41:04;2.13;;;2.00;;
10013;SDS011;45684;48.358;10.746;2022-10-16T06:43:34;2.20;;;2.00;;
10013;SDS011;45684;48.358;10.746;2022-10-16T06:46:02;2.20;;;2.00;;
10013;SDS011;45684;48.358;10.746;2022-10-16T06:48:33;2.07;;;1.87;;
10013;SDS011;45684;48.358;10.746;2022-10-16T06:51:02;2.47;;;2.37;;
10013;SDS011;45684;48.358;10.746;2022-10-16T06:53:32;3.00;;;2.60;;
10013;SDS011;45684;48.358;10.746;2022-10-16T06:56:15;2.73;;;2.63;;
10013;SDS011;45684;48.358;10.746;2022-10-16T06:58:46;3.60;;;3.20;;
10013;SDS011;45684;48.358;10.746;2022-10-16T07:01:15;4.23;;;3.20;;
10013;SDS011;45684;48.358;10.746;2022-10-16T07:03:44;3.60;;;3.40;;
10013;SDS011;45684;48.358;10.746;2022-10-16T07:06:14;4.10;;;3.10;;
10013;SDS011;45684;48.358;10.746;2022-10-16T07:08:43;2.80;;;2.60;;
10013;SDS011;45684;48.358;10.746;2022-10-16T07:11:13;2.80;;;2.60;;
10013;SDS011;45684;48.358;10.746;2022-10-16T07:13:42;2.50;;;2.30;;
10013;SDS011;45684;48.358;10.746;2022-10-16T07:16:20;2.87;;;2.10;;
10013;SDS011;45684;48.358;10.746;2022-10-16T07:18:49;1.97;;;1.87;;
10013;SDS011;45684;48.358;10.746;2022-10-16T07:21:21;5.50;;;2.23;;
10013;SDS011;45684;48.358;10.746;2022-10-16T07:23:51;2.10;;;2.00;;
10013;SDS011;45684;48.358;10.746;2022-10-16T07:26:20;2.40;;;1.93;;
10013;SDS011;45684;48.358;10.746;2022-10-16T07:28:48;2.00;;;1.80;;
10013;SDS011;45684;48.358;10.746;2022-10-16T07:31:19;1.90;;;1.80;;
10013;SDS011;45684;48.358;10.746;2022-10-16T07:33:48;2.77;;;2.07;;
10013;SDS011;45684;48.358;10.746;2022-10-16T07:36:17;2.30;;;2.10;;
10013;SDS011;45684;48.358;10.746;2022-10-16T07:38:46;2.10;;;2.00;;
10013;SDS011;45684;48.358;10.746;2022-10-16T07:41:15;2.70;;;2.50;;
10013;SDS011;45684;48.358;10.746;2022-10-16T07:43:45;2.40;;;2.20;;
10013;SDS011;45684;48.358;10.746;2022-10-16T07:46:13;2.50;;;2.37;;
10013;SDS011;45684;48.358;10.746;2022-10-16T07:48:44;3.77;;;2.03;;
10013;SDS011;45684;48.358;10.746;2022-10-16T07:51:13;1.67;;;1.57;;
10013;SDS011;45684;48.358;10.746;2022-10-16T07:53:42;1.80;;;1.50;;
10013;SDS011;45684;48.358;10.746;2022-10-16T07:56:10;2.93;;;1.50;;
10013;SDS011;45684;48.358;10.746;2022-10-16T07:58:38;1.70;;;1.27;;
10013;SDS011;45684;48.358;10.746;2022-10-16T08:01:06;2.23;;;1.20;;
10013;SDS011;45684;48.358;10.746;2022-10-16T08:03:37;2.77;;;1.23;;
10013;SDS011;45684;48.358;10.746;2022-10-16T08:06:06;1.23;;;1.20;;
10013;SDS011;45684;48.358;10.746;2022-10-16T08:08:34;1.43;;;1.40;;
10013;SDS011;45684;48.358;10.746;2022-10-16T08:11:01;2.00;;;1.57;;
10013;SDS011;45684;48.358;10.746;2022-10-16T08:13:30;1.80;;;1.60;;
10013;SDS011;45684;48.358;10.746;2022-10-16T08:15:58;1.60;;;1.30;;
10013;SDS011;45684;48.358;10.746;2022-10-16T08:18:26;1.73;;;1.40;;
10013;SDS011;45684;48.358;10.746;2022-10-16T08:20:57;1.50;;;1.40;;
10013;SDS011;45684;48.358;10.746;2022-10-16T08:23:28;1.47;;;1.37;;
10013;SDS011;45684;48.358;10.746;2022-10-16T08:25:56;2.30;;;1.53;;
10013;SDS011;45684;48.358;10.746;2022-10-16T08:28:31;1.30;;;1.20;;
10013;SDS011;45684;48.358;10.746;2022-10-16T08:31:04;1.50;;;1.40;;
10013;SDS011;45684;48.358;10.746;2022-10-16T08:33:33;2.03;;;1.40;;
10013;SDS011;45684;48.358;10.746;2022-10-16T08:36:02;2.00;;;1.20;;
10013;SDS011;45684;48.358;10.746;2022-10-16T08:38:32;3.07;;;1.47;;
10013;SDS011;45684;48.358;10.746;2022-10-16T08:41:10;2.20;;;1.40;;
10013;SDS011;45684;48.358;10.746;2022-10-16T08:43:54;2.13;;;1.30;;
10013;SDS011;45684;48.358;10.746;2022-10-16T08:46:41;3.40;;;1.20;;
10013;SDS011;45684;48.358;10.746;2022-10-16T08:49:16;1.30;;;1.20;;
10013;SDS011;45684;48.358;10.746;2022-10-16T08:51:44;1.10;;;1.10;;
10013;SDS011;45684;48.358;10.746;2022-10-16T08:54:20;1.80;;;1.20;;
10013;SDS011;45684;48.358;10.746;2022-10-16T08:56:53;1.20;;;1.10;;
10013;SDS011;45684;48.358;10.746;2022-10-16T08:59:22;1.05;;;1.02;;
10013;SDS011;45684;48.358;10.746;2022-10-16T09:01:50;1.60;;;1.00;;
10013;SDS011;45684;48.358;10.746;2022-10-16T09:04:27;1.00;;;1.00;;
10013;SDS011;45684;48.358;10.746;2022-10-16T09:07:12;2.58;;;1.10;;
10013;SDS011;45684;48.358;10.746;2022-10-16T09:10:02;1.17;;;1.02;;
10013;SDS011;45684;48.358;10.746;2022-10-16T09:12:40;0.95;;;0.95;;
10013;SDS011;45684;48.358;10.746;2022-10-16T09:15:14;4.72;;;1.00;;
10013;SDS011;45684;48.358;10.746;2022-10-16T09:17:53;1.83;;;1.00;;
10013;SDS011;45684;48.358;10.746;2022-10-16T09:20:28;1.10;;;1.00;;
10013;SDS011;45684;48.358;10.746;2022-10-16T09:23:07;1.10;;;1.00;;
10013;SDS011;45684;48.358;10.746;2022-10-16T09:25:42;1.45;;;1.00;;
10013;SDS011;45684;48.358;10.746;2022-10-16T09:28:13;2.33;;;1.05;;
10013;SDS011;45684;48.358;10.746;2022-10-16T09:30:42;0.98;;;0.98;;
10013;SDS011;45684;48.358;10.746;2022-10-16T09:33:11;2.35;;;1.00;;
10013;SDS011;45684;48.358;10.746;2022-10-16T09:35:41;0.93;;;0.93;;
10013;SDS011;45684;48.358;10.746;2022-10-16T09:38:20;2.63;;;1.20;;
10013;SDS011;45684;48.358;10.746;2022-10-16T09:40:51;1.88;;;1.50;;
10013;SDS011;45684;48.358;10.746;2022-10-16T09:43:28;2.10;;;1.63;;
10013;SDS011;45684;48.358;10.746;2022-10-16T09:46:03;2.70;;;2.00;;
10013;SDS011;45684;48.358;10.746;2022-10-16T09:48:36;2.47;;;2.28;;
10013;SDS011;45684;48.358;10.746;2022-10-16T09:51:06;4.18;;;2.22;;
10013;SDS011;45684;48.358;10.746;2022-10-16T09:53:46;2.92;;;2.20;;
10013;SDS011;45684;48.358;10.746;2022-10-16T09:56:22;2.60;;;2.00;;
10013;SDS011;45684;48.358;10.746;2022-10-16T09:58:51;2.97;;;2.22;;
10013;SDS011;45684;48.358;10.746;2022-10-16T10:01:21;2.30;;;1.98;;
10013;SDS011;45684;48.358;10.746;2022-10-16T10:03:55;4.32;;;2.35;;
10013;SDS011;45684;48.358;10.746;2022-10-16T10:06:27;2.63;;;1.95;;
10013;SDS011;45684;48.358;10.746;2022-10-16T10:08:58;1.83;;;1.65;;
10013;SDS011;45684;48.358;10.746;2022-10-16T10:11:37;3.22;;;1.85;;
10013;SDS011;45684;48.358;10.746;2022-10-16T10:14:18;1.60;;;1.50;;
10013;SDS011;45684;48.358;10.746;2022-10-16T10:16:48;3.05;;;1.60;;
10013;SDS011;45684;48.358;10.746;2022-10-16T10:19:18;1.70;;;1.55;;
10013;SDS011;45684;48.358;10.746;2022-10-16T10:21:47;1.60;;;1.48;;
10013;SDS011;45684;48.358;10.746;2022-10-16T10:24:16;1.67;;;1.58;;
10013;SDS011;45684;48.358;10.746;2022-10-16T10:26:51;1.70;;;1.60;;
10013;SDS011;45684;48.358;10.746;2022-10-16T10:29:30;1.63;;;1.30;;
10013;SDS011;45684;48.358;10.746;2022-10-16T10:32:17;1.25;;;1.15;;
10013;SDS011;45684;48.358;10.746;2022-10-16T10:34:55;1.90;;;1.30;;
10013;SDS011;45684;48.358;10.746;2022-10-16T10:37:41;1.40;;;1.30;;
10013;SDS011;45684;48.358;10.746;2022-10-16T10:40:23;1.30;;;1.10;;
10013;SDS011;45684;48.358;10.746;2022-10-16T10:42:59;1.58;;;1.33;;
10013;SDS011;45684;48.358;10.746;2022-10-16T10:45:36;1.23;;;1.13;;
10013;SDS011;45684;48.358;10.746;2022-10-16T10:51:08;1.70;;;1.13;;
10013;SDS011;45684;48.358;10.746;2022-10-16T10:53:41;0.85;;;0.85;;
10013;SDS011;45684;48.358;10.746;2022-10-16T10:56:29;1.02;;;1.02;;
10013;SDS011;45684;48.358;10.746;2022-10-16T10:59:30;1.15;;;1.10;;
10013;SDS011;45684;48.358;10.746;2022-10-16T11:02:12;2.53;;;1.08;;
10013;SDS011;45684;48.358;10.746;2022-10-16T11:08:07;2.33;;;1.20;;
10013;SDS011;45684;48.358;10.746;2022-10-16T11:10:42;2.53;;;1.50;;
10013;SDS011;45684;48.358;10.746;2022-10-16T11:13:23;1.42;;;1.33;;
10013;SDS011;45684;48.358;10.746;2022-10-16T11:15:57;4.03;;;1.70;;
10013;SDS011;45684;48.358;10.746;2022-10-16T11:18:28;1.73;;;1.38;;
10013;SDS011;45684;48.358;10.746;2022-10-16T11:21:04;1.42;;;1.33;;
10013;SDS011;45684;48.358;10.746;2022-10-16T11:23:38;3.22;;;1.50;;
10013;SDS011;45684;48.358;10.746;2022-10-16T11:26:11;1.67;;;1.15;;
10013;SDS011;45684;48.358;10.746;2022-10-16T11:28:45;1.60;;;1.50;;
10013;SDS011;45684;48.358;10.746;2022-10-16T11:31:17;1.50;;;1.15;;
10013;SDS011;45684;48.358;10.746;2022-10-16T11:33:51;1.40;;;1.30;;
10013;SDS011;45684;48.358;10.746;2022-10-16T11:36:27;1.30;;;1.20;;
10013;SDS011;45684;48.358;10.746;2022-10-16T11:39:02;4.20;;;1.38;;
10013;SDS011;45684;48.358;10.746;2022-10-16T11:41:37;1.73;;;1.20;;
10013;SDS011;45684;48.358;10.746;2022-10-16T11:44:14;1.27;;;1.17;;
10013;SDS011;45684;48.358;10.746;2022-10-16T11:46:50;2.13;;;1.10;;
10013;SDS011;45684;48.358;10.746;2022-10-16T11:49:45;2.83;;;1.20;;
10013;SDS011;45684;48.358;10.746;2022-10-16T11:52:17;1.10;;;1.02;;
10013;SDS011;45684;48.358;10.746;2022-10-16T11:54:52;1.00;;;1.00;;
10013;SDS011;45684;48.358;10.746;2022-10-16T11:57:26;1.00;;;1.00;;
10013;SDS011;45684;48.358;10.746;2022-10-16T11:59:57;1.30;;;1.20;;
10013;SDS011;45684;48.358;10.746;2022-10-16T12:02:42;1.00;;;1.00;;
10013;SDS011;45684;48.358;10.746;2022-10-16T12:05:19;1.02;;;1.00;;
10013;SDS011;45684;48.358;10.746;2022-10-16T12:07:56;1.20;;;1.02;;
10013;SDS011;45684;48.358;10.746;2022-10-16T12:10:31;1.30;;;1.20;;
10013;SDS011;45684;48.358;10.746;2022-10-16T12:16:04;5.22;;;1.27;;
10013;SDS011;45684;48.358;10.746;2022-10-16T12:18:49;2.13;;;1.30;;
10013;SDS011;45684;48.358;10.746;2022-10-16T12:21:30;1.77;;;1.30;;
10013;SDS011;45684;48.358;10.746;2022-10-16T12:23:58;1.88;;;1.00;;
10013;SDS011;45684;48.358;10.746;2022-10-16T12:26:31;1.75;;;1.05;;
10013;SDS011;45684;48.358;10.746;2022-10-16T12:29:21;2.38;;;0.80;;
10013;SDS011;45684;48.358;10.746;2022-10-16T12:31:53;1.02;;;0.95;;
10013;SDS011;45684;48.358;10.746;2022-10-16T12:34:28;1.27;;;0.98;;
10013;SDS011;45684;48.358;10.746;2022-10-16T12:37:07;1.30;;;0.95;;
10013;SDS011;45684;48.358;10.746;2022-10-16T12:39:37;1.27;;;1.00;;
10013;SDS011;45684;48.358;10.746;2022-10-16T12:42:06;2.63;;;1.20;;
10013;SDS011;45684;48.358;10.746;2022-10-16T12:44:47;1.30;;;1.20;;
10013;SDS011;45684;48.358;10.746;2022-10-16T12:47:19;2.13;;;1.00;;
10013;SDS011;45684;48.358;10.746;2022-10-16T12:49:51;2.70;;;1.00;;
10013;SDS011;45684;48.358;10.746;2022-10-16T12:52:24;1.13;;;1.02;;
10013;SDS011;45684;48.358;10.746;2022-10-16T12:54:55;1.02;;;1.00;;
10013;SDS011;45684;48.358;10.746;2022-10-16T12:57:30;7.45;;;1.50;;
10013;SDS011;45684;48.358;10.746;2022-10-16T13:00:10;3.65;;;1.20;;
10013;SDS011;45684;48.358;10.746;2022-10-16T13:02:57;1.58;;;0.93;;
10013;SDS011;45684;48.358;10.746;2022-10-16T13:05:53;0.77;;;0.77;;
10013;SDS011;45684;48.358;10.746;2022-10-16T13:08:44;1.08;;;1.05;;
10013;SDS011;45684;48.358;10.746;2022-10-16T13:11:24;1.42;;;1.00;;
10013;SDS011;45684;48.358;10.746;2022-10-16T13:14:04;0.95;;;0.95;;
10013;SDS011;45684;48.358;10.746;2022-10-16T13:16:49;2.90;;;0.95;;
10013;SDS011;45684;48.358;10.746;2022-10-16T13:19:29;2.13;;;0.90;;
10013;SDS011;45684;48.358;10.746;2022-10-16T13:22:10;1.77;;;1.10;;
10013;SDS011;45684;48.358;10.746;2022-10-16T13:24:50;1.77;;;0.90;;
10013;SDS011;45684;48.358;10.746;2022-10-16T13:27:30;0.82;;;0.82;;
10013;SDS011;45684;48.358;10.746;2022-10-16T13:30:09;0.98;;;0.98;;
10013;SDS011;45684;48.358;10.746;2022-10-16T13:32:40;2.10;;;1.00;;
10013;SDS011;45684;48.358;10.746;2022-10-16T13:35:19;2.20;;;0.73;;
10013;SDS011;45684;48.358;10.746;2022-10-16T13:38:02;1.00;;;0.90;;
10013;SDS011;45684;48.358;10.746;2022-10-16T13:40:31;1.83;;;0.98;;
10013;SDS011;45684;48.358;10.746;2022-10-16T13:43:00;1.30;;;1.20;;
10013;SDS011;45684;48.358;10.746;2022-10-16T13:45:29;1.35;;;1.10;;
10013;SDS011;45684;48.358;10.746;2022-10-16T13:48:03;1.13;;;0.95;;
10013;SDS011;45684;48.358;10.746;2022-10-16T13:50:31;0.80;;;0.80;;
10013;SDS011;45684;48.358;10.746;2022-10-16T13:53:04;1.42;;;1.05;;
10013;SDS011;45684;48.358;10.746;2022-10-16T13:55:32;1.58;;;1.10;;
10013;SDS011;45684;48.358;10.746;2022-10-16T13:58:04;1.48;;;1.15;;
10013;SDS011;45684;48.358;10.746;2022-10-16T14:00:33;2.70;;;1.10;;
10013;SDS011;45684;48.358;10.746;2022-10-16T14:03:02;2.25;;;1.20;;
10013;SDS011;45684;48.358;10.746;2022-10-16T14:05:32;1.38;;;1.02;;
10013;SDS011;45684;48.358;10.746;2022-10-16T14:08:00;1.80;;;1.05;;
10013;SDS011;45684;48.358;10.746;2022-10-16T14:10:30;1.75;;;1.02;;
10013;SDS011;45684;48.358;10.746;2022-10-16T14:13:01;1.85;;;1.00;;
10013;SDS011;45684;48.358;10.746;2022-10-16T14:15:31;2.05;;;1.10;;
10013;SDS011;45684;48.358;10.746;2022-10-16T14:18:02;0.77;;;0.77;;
10013;SDS011;45684;48.358;10.746;2022-10-16T14:20:31;1.70;;;1.15;;
10013;SDS011;45684;48.358;10.746;2022-10-16T14:23:01;1.20;;;1.10;;
10013;SDS011;45684;48.358;10.746;2022-10-16T14:25:32;1.30;;;1.13;;
10013;SDS011;45684;48.358;10.746;2022-10-16T14:28:01;1.48;;;0.82;;
10013;SDS011;45684;48.358;10.746;2022-10-16T14:30:30;1.30;;;1.17;;
10013;SDS011;45684;48.358;10.746;2022-10-16T14:33:01;1.05;;;0.95;;
10013;SDS011;45684;48.358;10.746;2022-10-16T14:35:31;1.60;;;1.02;;
10013;SDS011;45684;48.358;10.746;2022-10-16T14:38:01;0.95;;;0.95;;
10013;SDS011;45684;48.358;10.746;2022-10-16T14:40:31;1.27;;;1.17;;
10013;SDS011;45684;48.358;10.746;2022-10-16T14:43:03;3.47;;;1.00;;
10013;SDS011;45684;48.358;10.746;2022-10-16T14:45:32;5.63;;;1.30;;
10013;SDS011;45684;48.358;10.746;2022-10-16T14:48:02;4.43;;;1.33;;
10013;SDS011;45684;48.358;10.746;2022-10-16T14:50:45;5.00;;;1.20;;
10013;SDS011;45684;48.358;10.746;2022-10-16T14:53:13;3.13;;;1.20;;
10013;SDS011;45684;48.358;10.746;2022-10-16T14:55:42;4.97;;;1.38;;
10013;SDS011;45684;48.358;10.746;2022-10-16T14:58:11;3.67;;;1.13;;
10013;SDS011;45684;48.358;10.746;2022-10-16T15:00:42;3.40;;;1.38;;
10013;SDS011;45684;48.358;10.746;2022-10-16T15:03:10;2.45;;;1.27;;
10013;SDS011;45684;48.358;10.746;2022-10-16T15:05:38;2.15;;;1.40;;
10013;SDS011;45684;48.358;10.746;2022-10-16T15:08:05;3.92;;;1.38;;
10013;SDS011;45684;48.358;10.746;2022-10-16T15:10:35;2.83;;;1.20;;